sensor_id;sensor_type;location;lat;lon;timestamp;pressure;altitude;pressure_sealevel;temperature;humidity
47082;BME280;33066;49.296;14.470;2022-12-10T00:01:06;95667.03;;;8.29;37.55
47082;BME280;33066;49.296;14.470;2022-12-10T00:03:26;95667.19;;;8.12;37.53
47082;BME280;33066;49.296;14.470;2022-12-10T00:05:53;95670.06;;;8.15;37.37
47082;BME280;33066;49.296;14.470;2022-12-10T00:08:17;95669.23;;;8.42;37.37
47082;BME280;33066;49.296;14.470;2022-12-10T00:10:44;95671.59;;;8.21;37.25
47082;BME280;33066;49.296;14.470;2022-12-10T00:13:09;95675.52;;;8.17;37.29
47082;BME280;33066;49.296;14.470;2022-12-10T00:15:34;95674.57;;;8.17;37.33
47082;BME280;33066;49.296;14.470;2022-12-10T00:18:00;95684.16;;;8.43;37.23
47082;BME280;33066;49.296;14.470;2022-12-10T00:20:24;95690.46;;;8.20;37.23
47082;BME280;33066;49.296;14.470;2022-12-10T00:22:50;95693.36;;;8.09;37.30
47082;BME280;33066;49.296;14.470;2022-12-10T00:25:16;95700.43;;;8.58;37.26
47082;BME280;33066;49.296;14.470;2022-12-10T00:27:40;95703.90;;;8.09;37.34
47082;BME280;33066;49.296;14.470;2022-12-10T00:30:09;95704.41;;;8.21;37.59
47082;BME280;33066;49.296;14.470;2022-12-10T00:32:32;95707.45;;;8.20;37.64
47082;BME280;33066;49.296;14.470;2022-12-10T00:34:58;95708.62;;;7.98;37.68
47082;BME280;33066;49.296;14.470;2022-12-10T00:37:24;95710.34;;;8.38;37.72
47082;BME280;33066;49.296;14.470;2022-12-10T00:39:50;95712.47;;;8.18;37.59
47082;BME280;33066;49.296;14.470;2022-12-10T00:42:15;95712.57;;;7.87;37.69
47082;BME280;33066;49.296;14.470;2022-12-10T00:44:40;95708.19;;;7.88;37.67
47082;BME280;33066;49.296;14.470;2022-12-10T00:47:04;95706.87;;;8.11;37.64
47082;BME280;33066;49.296;14.470;2022-12-10T00:49:30;95702.68;;;8.12;37.67
47082;BME280;33066;49.296;14.470;2022-12-10T00:51:56;95701.69;;;7.81;37.65
47082;BME280;33066;49.296;14.470;2022-12-10T00:54:21;95702.93;;;7.87;37.79
47082;BME280;33066;49.296;14.470;2022-12-10T00:56:46;95705.46;;;8.21;37.68
47082;BME280;33066;49.296;14.470;2022-12-10T00:59:11;95702.88;;;8.24;37.65
47082;BME280;33066;49.296;14.470;2022-12-10T01:01:40;95700.98;;;8.31;37.53
47082;BME280;33066;49.296;14.470;2022-12-10T01:04:06;95701.10;;;8.32;37.49
47082;BME280;33066;49.296;14.470;2022-12-10T01:06:30;95703.09;;;8.63;37.46
47082;BME280;33066;49.296;14.470;2022-12-10T01:08:56;95710.93;;;8.35;37.51
47082;BME280;33066;49.296;14.470;2022-12-10T01:11:20;95714.95;;;8.13;37.38
47082;BME280;33066;49.296;14.470;2022-12-10T01:13:45;95715.37;;;8.57;37.47
47082;BME280;33066;49.296;14.470;2022-12-10T01:16:12;95711.70;;;8.25;37.60
47082;BME280;33066;49.296;14.470;2022-12-10T01:18:37;95709.18;;;8.31;37.58
47082;BME280;33066;49.296;14.470;2022-12-10T01:21:02;95707.52;;;8.04;37.69
47082;BME280;33066;49.296;14.470;2022-12-10T01:23:26;95706.99;;;8.11;37.68
47082;BME280;33066;49.296;14.470;2022-12-10T01:25:51;95703.10;;;8.24;37.74
47082;BME280;33066;49.296;14.470;2022-12-10T01:28:16;95699.84;;;8.38;37.84
47082;BME280;33066;49.296;14.470;2022-12-10T01:30:43;95700.59;;;8.42;37.84
47082;BME280;33066;49.296;14.470;2022-12-10T01:33:08;95704.11;;;8.25;37.65
47082;BME280;33066;49.296;14.470;2022-12-10T01:35:36;95703.00;;;7.96;37.83
47082;BME280;33066;49.296;14.470;2022-12-10T01:37:59;95705.48;;;8.40;37.80
47082;BME280;33066;49.296;14.470;2022-12-10T01:40:23;95708.51;;;8.00;37.67
47082;BME280;33066;49.296;14.470;2022-12-10T01:42:51;95711.95;;;8.03;37.61
47082;BME280;33066;49.296;14.470;2022-12-10T01:45:21;95714.32;;;8.03;37.70
47082;BME280;33066;49.296;14.470;2022-12-10T01:47:40;95716.41;;;8.06;37.63
47082;BME280;33066;49.296;14.470;2022-12-10T01:50:08;95715.51;;;8.05;37.57
47082;BME280;33066;49.296;14.470;2022-12-10T01:52:33;95715.29;;;8.09;37.58
47082;BME280;33066;49.296;14.470;2022-12-10T01:54:58;95717.07;;;8.25;37.57
47082;BME280;33066;49.296;14.470;2022-12-10T01:57:25;95718.72;;;8.02;37.61
47082;BME280;33066;49.296;14.470;2022-12-10T01:59:53;95724.34;;;8.47;37.45
47082;BME280;33066;49.296;14.470;2022-12-10T02:02:20;95730.71;;;8.41;37.51
47082;BME280;33066;49.296;14.470;2022-12-10T02:04:47;95739.55;;;8.09;37.59
47082;BME280;33066;49.296;14.470;2022-12-10T02:07:12;95744.36;;;8.07;37.66
47082;BME280;33066;49.296;14.470;2022-12-10T02:09:34;95747.47;;;8.06;37.77
47082;BME280;33066;49.296;14.470;2022-12-10T02:12:07;95749.59;;;8.07;37.80
47082;BME280;33066;49.296;14.470;2022-12-10T02:14:27;95750.16;;;8.32;37.72
47082;BME280;33066;49.296;14.470;2022-12-10T02:16:51;95749.37;;;7.94;37.67
47082;BME280;33066;49.296;14.470;2022-12-10T02:19:19;95746.62;;;7.98;37.60
47082;BME280;33066;49.296;14.470;2022-12-10T02:21:40;95744.97;;;8.11;37.59
47082;BME280;33066;49.296;14.470;2022-12-10T02:24:05;95746.38;;;8.31;37.67
47082;BME280;33066;49.296;14.470;2022-12-10T02:26:35;95749.65;;;8.05;37.38
47082;BME280;33066;49.296;14.470;2022-12-10T02:29:03;95748.92;;;8.10;37.50
47082;BME280;33066;49.296;14.470;2022-12-10T02:31:23;95747.59;;;7.88;37.51
47082;BME280;33066;49.296;14.470;2022-12-10T02:33:48;95744.19;;;8.38;37.39
47082;BME280;33066;49.296;14.470;2022-12-10T02:36:11;95743.04;;;8.35;37.46
47082;BME280;33066;49.296;14.470;2022-12-10T02:38:38;95745.67;;;7.89;37.40
47082;BME280;33066;49.296;14.470;2022-12-10T02:41:02;95746.64;;;8.43;37.41
47082;BME280;33066;49.296;14.470;2022-12-10T02:43:29;95750.70;;;7.95;37.42
47082;BME280;33066;49.296;14.470;2022-12-10T02:45:50;95757.62;;;8.38;37.40
47082;BME280;33066;49.296;14.470;2022-12-10T02:48:19;95760.36;;;8.22;37.28
47082;BME280;33066;49.296;14.470;2022-12-10T02:50:42;95761.78;;;7.98;37.37
47082;BME280;33066;49.296;14.470;2022-12-10T02:53:06;95760.80;;;8.19;37.43
47082;BME280;33066;49.296;14.470;2022-12-10T02:55:47;95764.48;;;7.96;37.31
47082;BME280;33066;49.296;14.470;2022-12-10T02:58:06;95762.90;;;8.47;37.27
47082;BME280;33066;49.296;14.470;2022-12-10T03:00:24;95761.83;;;8.00;37.21
47082;BME280;33066;49.296;14.470;2022-12-10T03:03:06;95763.64;;;8.37;37.32
47082;BME280;33066;49.296;14.470;2022-12-10T03:05:19;95761.00;;;7.86;37.42
47082;BME280;33066;49.296;14.470;2022-12-10T03:07:45;95759.17;;;8.16;37.37
47082;BME280;33066;49.296;14.470;2022-12-10T03:10:10;95755.75;;;8.19;37.27
47082;BME280;33066;49.296;14.470;2022-12-10T03:12:35;95759.64;;;7.97;37.30
47082;BME280;33066;49.296;14.470;2022-12-10T03:14:57;95758.00;;;8.01;37.26
47082;BME280;33066;49.296;14.470;2022-12-10T03:17:22;95754.61;;;7.99;37.20
47082;BME280;33066;49.296;14.470;2022-12-10T03:19:48;95747.02;;;8.16;37.20
47082;BME280;33066;49.296;14.470;2022-12-10T03:22:13;95740.65;;;8.39;37.26
47082;BME280;33066;49.296;14.470;2022-12-10T03:24:39;95739.12;;;8.36;37.34
47082;BME280;33066;49.296;14.470;2022-12-10T03:27:04;95735.88;;;8.08;37.32
47082;BME280;33066;49.296;14.470;2022-12-10T03:29:34;95731.49;;;7.99;37.45
47082;BME280;33066;49.296;14.470;2022-12-10T03:31:57;95723.38;;;7.70;37.53
47082;BME280;33066;49.296;14.470;2022-12-10T03:34:19;95720.50;;;7.91;37.55
47082;BME280;33066;49.296;14.470;2022-12-10T03:36:46;95726.37;;;7.67;37.60
47082;BME280;33066;49.296;14.470;2022-12-10T03:39:10;95723.88;;;8.14;37.66
47082;BME280;33066;49.296;14.470;2022-12-10T03:41:36;95723.27;;;7.91;37.65
47082;BME280;33066;49.296;14.470;2022-12-10T03:44:02;95728.86;;;8.16;37.58
47082;BME280;33066;49.296;14.470;2022-12-10T03:46:29;95728.54;;;7.90;37.60
47082;BME280;33066;49.296;14.470;2022-12-10T03:48:53;95726.19;;;8.13;37.62
47082;BME280;33066;49.296;14.470;2022-12-10T03:51:19;95726.00;;;7.61;37.65
47082;BME280;33066;49.296;14.470;2022-12-10T03:53:44;95729.81;;;8.09;37.55
47082;BME280;33066;49.296;14.470;2022-12-10T03:56:09;95730.91;;;8.08;37.58
47082;BME280;33066;49.296;14.470;2022-12-10T03:58:36;95728.72;;;7.56;37.63
47082;BME280;33066;49.296;14.470;2022-12-10T04:01:00;95719.80;;;7.56;37.62
47082;BME280;33066;49.296;14.470;2022-12-10T04:03:24;95717.99;;;8.04;37.60
47082;BME280;33066;49.296;14.470;2022-12-10T04:05:51;95720.39;;;7.98;37.71
47082;BME280;33066;49.296;14.470;2022-12-10T04:08:18;95725.15;;;7.94;37.77
47082;BME280;33066;49.296;14.470;2022-12-10T04:13:00;95723.90;;;8.22;36.77
47082;BME280;33066;49.296;14.470;2022-12-10T04:15:25;95729.36;;;8.29;36.74
47082;BME280;33066;49.296;14.470;2022-12-10T04:17:51;95731.76;;;8.47;37.11
47082;BME280;33066;49.296;14.470;2022-12-10T04:20:16;95732.35;;;8.07;37.36
47082;BME280;33066;49.296;14.470;2022-12-10T04:22:41;95731.72;;;8.14;37.47
47082;BME280;33066;49.296;14.470;2022-12-10T04:25:08;95732.02;;;7.90;37.56
47082;BME280;33066;49.296;14.470;2022-12-10T04:27:35;95736.05;;;7.91;37.54
47082;BME280;33066;49.296;14.470;2022-12-10T04:29:59;95737.54;;;8.15;37.62
47082;BME280;33066;49.296;14.470;2022-12-10T04:32:26;95736.54;;;8.09;37.65
47082;BME280;33066;49.296;14.470;2022-12-10T04:34:49;95723.56;;;7.91;37.68
47082;BME280;33066;49.296;14.470;2022-12-10T04:37:16;95716.12;;;8.20;37.61
47082;BME280;33066;49.296;14.470;2022-12-10T04:39:40;95722.02;;;8.25;37.57
47082;BME280;33066;49.296;14.470;2022-12-10T04:42:07;95732.69;;;7.80;37.50
47082;BME280;33066;49.296;14.470;2022-12-10T04:44:31;95737.52;;;8.18;37.60
47082;BME280;33066;49.296;14.470;2022-12-10T04:46:56;95737.06;;;8.20;37.57
47082;BME280;33066;49.296;14.470;2022-12-10T04:49:21;95740.52;;;7.95;37.68
47082;BME280;33066;49.296;14.470;2022-12-10T04:51:47;95738.44;;;8.16;37.81
47082;BME280;33066;49.296;14.470;2022-12-10T04:54:12;95733.51;;;7.98;37.77
47082;BME280;33066;49.296;14.470;2022-12-10T04:56:37;95731.23;;;8.25;37.79
47082;BME280;33066;49.296;14.470;2022-12-10T04:59:04;95729.08;;;8.03;37.71
47082;BME280;33066;49.296;14.470;2022-12-10T05:01:30;95733.99;;;7.80;38.48
47082;BME280;33066;49.296;14.470;2022-12-10T05:03:57;95737.62;;;8.02;39.07
47082;BME280;33066;49.296;14.470;2022-12-10T05:06:20;95735.32;;;8.04;39.98
47082;BME280;33066;49.296;14.470;2022-12-10T05:08:45;95734.28;;;8.27;40.32
47082;BME280;33066;49.296;14.470;2022-12-10T05:11:12;95729.96;;;8.03;39.99
47082;BME280;33066;49.296;14.470;2022-12-10T05:13:36;95716.27;;;8.11;40.51
47082;BME280;33066;49.296;14.470;2022-12-10T05:16:03;95713.02;;;7.95;40.89
47082;BME280;33066;49.296;14.470;2022-12-10T05:18:27;95714.83;;;7.99;40.57
47082;BME280;33066;49.296;14.470;2022-12-10T05:20:52;95720.67;;;8.22;40.54
47082;BME280;33066;49.296;14.470;2022-12-10T05:23:18;95730.26;;;8.40;39.34
47082;BME280;33066;49.296;14.470;2022-12-10T05:25:43;95737.22;;;7.92;39.36
47082;BME280;33066;49.296;14.470;2022-12-10T05:28:09;95731.69;;;7.92;39.17
47082;BME280;33066;49.296;14.470;2022-12-10T05:30:35;95733.37;;;7.89;39.16
47082;BME280;33066;49.296;14.470;2022-12-10T05:33:00;95738.85;;;7.88;39.43
47082;BME280;33066;49.296;14.470;2022-12-10T05:35:25;95746.11;;;8.37;39.20
47082;BME280;33066;49.296;14.470;2022-12-10T05:37:50;95755.97;;;8.08;39.21
47082;BME280;33066;49.296;14.470;2022-12-10T05:40:16;95761.30;;;7.85;39.29
47082;BME280;33066;49.296;14.470;2022-12-10T05:42:41;95767.45;;;8.35;39.05
47082;BME280;33066;49.296;14.470;2022-12-10T05:45:08;95769.46;;;7.88;39.14
47082;BME280;33066;49.296;14.470;2022-12-10T05:47:33;95768.31;;;8.09;38.35
47082;BME280;33066;49.296;14.470;2022-12-10T05:49:58;95771.18;;;8.33;38.92
47082;BME280;33066;49.296;14.470;2022-12-10T05:52:24;95766.77;;;8.15;39.21
47082;BME280;33066;49.296;14.470;2022-12-10T05:54:49;95765.97;;;8.18;39.09
47082;BME280;33066;49.296;14.470;2022-12-10T05:57:15;95764.93;;;7.97;39.06
47082;BME280;33066;49.296;14.470;2022-12-10T05:59:42;95771.81;;;8.19;38.92
47082;BME280;33066;49.296;14.470;2022-12-10T06:02:05;95772.32;;;8.21;38.23
47082;BME280;33066;49.296;14.470;2022-12-10T06:04:32;95777.60;;;8.20;37.89
47082;BME280;33066;49.296;14.470;2022-12-10T06:06:57;95780.62;;;8.39;37.84
47082;BME280;33066;49.296;14.470;2022-12-10T06:09:22;95779.19;;;8.37;37.81
47082;BME280;33066;49.296;14.470;2022-12-10T06:11:47;95781.01;;;8.34;37.79
47082;BME280;33066;49.296;14.470;2022-12-10T06:14:12;95780.33;;;7.90;37.63
47082;BME280;33066;49.296;14.470;2022-12-10T06:16:39;95782.95;;;8.35;37.55
47082;BME280;33066;49.296;14.470;2022-12-10T06:19:03;95788.47;;;8.15;37.65
47082;BME280;33066;49.296;14.470;2022-12-10T06:21:29;95790.82;;;7.93;37.76
47082;BME280;33066;49.296;14.470;2022-12-10T06:23:55;95788.09;;;8.38;37.81
47082;BME280;33066;49.296;14.470;2022-12-10T06:26:22;95780.51;;;8.25;37.57
47082;BME280;33066;49.296;14.470;2022-12-10T06:28:46;95775.45;;;8.25;37.49
47082;BME280;33066;49.296;14.470;2022-12-10T06:31:11;95773.63;;;8.30;37.46
47082;BME280;33066;49.296;14.470;2022-12-10T06:33:36;95773.43;;;8.04;37.32
47082;BME280;33066;49.296;14.470;2022-12-10T06:36:04;95781.55;;;8.50;37.33
47082;BME280;33066;49.296;14.470;2022-12-10T06:38:27;95786.50;;;7.99;37.42
47082;BME280;33066;49.296;14.470;2022-12-10T06:40:53;95793.59;;;8.19;37.21
47082;BME280;33066;49.296;14.470;2022-12-10T06:43:19;95800.09;;;8.20;37.05
47082;BME280;33066;49.296;14.470;2022-12-10T06:45:44;95798.57;;;8.33;37.29
47082;BME280;33066;49.296;14.470;2022-12-10T06:48:09;95793.14;;;8.30;37.35
47082;BME280;33066;49.296;14.470;2022-12-10T06:50:35;95797.54;;;8.55;37.40
47082;BME280;33066;49.296;14.470;2022-12-10T06:53:02;95803.42;;;8.17;37.36
47082;BME280;33066;49.296;14.470;2022-12-10T06:55:25;95814.00;;;7.94;37.63
47082;BME280;33066;49.296;14.470;2022-12-10T06:57:51;95815.46;;;8.21;37.82
47082;BME280;33066;49.296;14.470;2022-12-10T07:00:17;95807.99;;;8.04;37.74
47082;BME280;33066;49.296;14.470;2022-12-10T07:02:42;95803.34;;;7.89;38.26
47082;BME280;33066;49.296;14.470;2022-12-10T07:05:08;95800.12;;;8.06;38.96
47082;BME280;33066;49.296;14.470;2022-12-10T07:07:33;95794.98;;;8.09;38.01
47082;BME280;33066;49.296;14.470;2022-12-10T07:09:58;95793.85;;;8.53;38.02
47082;BME280;33066;49.296;14.470;2022-12-10T07:12:23;95795.39;;;8.41;38.36
47082;BME280;33066;49.296;14.470;2022-12-10T07:14:49;95795.27;;;8.16;38.47
47082;BME280;33066;49.296;14.470;2022-12-10T07:17:14;95799.39;;;8.20;38.20
47082;BME280;33066;49.296;14.470;2022-12-10T07:19:40;95810.24;;;8.11;37.52
47082;BME280;33066;49.296;14.470;2022-12-10T07:22:06;95817.59;;;8.34;37.63
47082;BME280;33066;49.296;14.470;2022-12-10T07:24:31;95821.54;;;8.05;37.87
47082;BME280;33066;49.296;14.470;2022-12-10T07:26:56;95823.20;;;8.14;37.76
47082;BME280;33066;49.296;14.470;2022-12-10T07:29:22;95823.60;;;8.27;37.88
47082;BME280;33066;49.296;14.470;2022-12-10T07:31:48;95822.95;;;8.02;38.03
47082;BME280;33066;49.296;14.470;2022-12-10T07:34:15;95819.12;;;8.03;37.79
47082;BME280;33066;49.296;14.470;2022-12-10T07:36:38;95821.05;;;7.87;37.92
47082;BME280;33066;49.296;14.470;2022-12-10T07:39:05;95824.97;;;8.21;37.87
47082;BME280;33066;49.296;14.470;2022-12-10T07:41:29;95828.95;;;8.13;37.95
47082;BME280;33066;49.296;14.470;2022-12-10T07:43:54;95830.38;;;8.21;38.19
47082;BME280;33066;49.296;14.470;2022-12-10T07:46:22;95837.57;;;7.81;38.08
47082;BME280;33066;49.296;14.470;2022-12-10T07:48:47;95841.36;;;8.27;38.00
47082;BME280;33066;49.296;14.470;2022-12-10T07:51:11;95837.06;;;7.74;38.09
47082;BME280;33066;49.296;14.470;2022-12-10T07:53:37;95832.98;;;8.35;38.07
47082;BME280;33066;49.296;14.470;2022-12-10T07:56:03;95838.98;;;8.40;38.37
47082;BME280;33066;49.296;14.470;2022-12-10T07:58:27;95833.71;;;8.39;38.79
47082;BME280;33066;49.296;14.470;2022-12-10T08:00:54;95833.89;;;8.19;38.26
47082;BME280;33066;49.296;14.470;2022-12-10T08:03:19;95828.61;;;8.02;38.16
47082;BME280;33066;49.296;14.470;2022-12-10T08:05:44;95827.35;;;8.58;38.10
47082;BME280;33066;49.296;14.470;2022-12-10T08:08:09;95832.25;;;8.45;37.89
47082;BME280;33066;49.296;14.470;2022-12-10T08:10:35;95832.57;;;8.29;37.71
47082;BME280;33066;49.296;14.470;2022-12-10T08:13:02;95830.85;;;8.30;37.56
47082;BME280;33066;49.296;14.470;2022-12-10T08:15:26;95827.81;;;8.80;37.51
47082;BME280;33066;49.296;14.470;2022-12-10T08:17:52;95825.71;;;8.39;37.49
47082;BME280;33066;49.296;14.470;2022-12-10T08:20:17;95823.57;;;8.50;37.37
47082;BME280;33066;49.296;14.470;2022-12-10T08:22:44;95826.40;;;8.48;37.29
47082;BME280;33066;49.296;14.470;2022-12-10T08:25:08;95822.62;;;8.48;37.31
47082;BME280;33066;49.296;14.470;2022-12-10T08:27:34;95819.44;;;8.48;37.32
47082;BME280;33066;49.296;14.470;2022-12-10T08:29:59;95823.97;;;8.56;37.23
47082;BME280;33066;49.296;14.470;2022-12-10T08:32:24;95823.63;;;8.63;37.18
47082;BME280;33066;49.296;14.470;2022-12-10T08:34:50;95828.21;;;8.71;37.06
47082;BME280;33066;49.296;14.470;2022-12-10T08:37:15;95825.38;;;8.65;37.09
47082;BME280;33066;49.296;14.470;2022-12-10T08:39:40;95822.67;;;8.64;36.94
47082;BME280;33066;49.296;14.470;2022-12-10T08:42:06;95821.33;;;8.62;37.05
47082;BME280;33066;49.296;14.470;2022-12-10T08:44:31;95823.77;;;8.51;37.00
47082;BME280;33066;49.296;14.470;2022-12-10T08:46:56;95826.43;;;8.46;37.04
47082;BME280;33066;49.296;14.470;2022-12-10T08:49:22;95823.47;;;8.74;37.14
47082;BME280;33066;49.296;14.470;2022-12-10T08:51:47;95822.36;;;8.51;37.10
47082;BME280;33066;49.296;14.470;2022-12-10T08:54:12;95824.78;;;8.55;37.07
47082;BME280;33066;49.296;14.470;2022-12-10T08:56:38;95823.85;;;8.54;36.99
47082;BME280;33066;49.296;14.470;2022-12-10T08:59:03;95823.27;;;8.55;37.14
47082;BME280;33066;49.296;14.470;2022-12-10T09:01:28;95826.46;;;8.67;37.53
47082;BME280;33066;49.296;14.470;2022-12-10T09:03:53;95827.64;;;8.70;38.53
47082;BME280;33066;49.296;14.470;2022-12-10T09:06:22;95828.00;;;8.72;39.55
47082;BME280;33066;49.296;14.470;2022-12-10T09:08:45;95830.73;;;8.63;38.96
47082;BME280;33066;49.296;14.470;2022-12-10T09:11:11;95827.39;;;8.89;39.66
47082;BME280;33066;49.296;14.470;2022-12-10T09:13:35;95825.79;;;8.94;39.38
47082;BME280;33066;49.296;14.470;2022-12-10T09:16:01;95824.02;;;8.78;39.26
47082;BME280;33066;49.296;14.470;2022-12-10T09:18:26;95829.82;;;8.84;38.91
47082;BME280;33066;49.296;14.470;2022-12-10T09:20:51;95833.93;;;8.87;38.50
47082;BME280;33066;49.296;14.470;2022-12-10T09:23:18;95826.33;;;8.91;37.97
47082;BME280;33066;49.296;14.470;2022-12-10T09:25:42;95824.22;;;8.94;38.62
47082;BME280;33066;49.296;14.470;2022-12-10T09:28:08;95824.60;;;8.82;38.53
47082;BME280;33066;49.296;14.470;2022-12-10T09:30:33;95821.62;;;8.85;38.42
47082;BME280;33066;49.296;14.470;2022-12-10T09:32:58;95822.92;;;8.77;37.56
47082;BME280;33066;49.296;14.470;2022-12-10T09:35:24;95821.49;;;8.83;38.45
47082;BME280;33066;49.296;14.470;2022-12-10T09:37:49;95820.39;;;8.63;38.66
47082;BME280;33066;49.296;14.470;2022-12-10T09:40:16;95817.58;;;9.00;38.33
47082;BME280;33066;49.296;14.470;2022-12-10T09:42:48;95814.65;;;9.10;37.40
47082;BME280;33066;49.296;14.470;2022-12-10T09:45:14;95812.23;;;9.18;38.10
47082;BME280;33066;49.296;14.470;2022-12-10T09:47:36;95809.52;;;9.12;37.69
47082;BME280;33066;49.296;14.470;2022-12-10T09:50:04;95804.64;;;9.22;37.29
47082;BME280;33066;49.296;14.470;2022-12-10T09:52:24;95804.85;;;9.03;36.93
47082;BME280;33066;49.296;14.470;2022-12-10T09:54:50;95810.65;;;9.30;37.04
47082;BME280;33066;49.296;14.470;2022-12-10T09:57:19;95810.39;;;9.55;37.12
47082;BME280;33066;49.296;14.470;2022-12-10T09:59:42;95811.24;;;9.29;37.05
47082;BME280;33066;49.296;14.470;2022-12-10T10:04:30;95804.29;;;9.14;36.39
47082;BME280;33066;49.296;14.470;2022-12-10T10:06:55;95802.74;;;9.39;36.48
47082;BME280;33066;49.296;14.470;2022-12-10T10:09:21;95804.23;;;9.17;36.27
47082;BME280;33066;49.296;14.470;2022-12-10T10:11:47;95807.00;;;9.02;36.44
47082;BME280;33066;49.296;14.470;2022-12-10T10:14:14;95805.30;;;9.35;36.31
47082;BME280;33066;49.296;14.470;2022-12-10T10:16:42;95803.73;;;9.17;36.20
47082;BME280;33066;49.296;14.470;2022-12-10T10:19:04;95802.81;;;8.92;36.13
47082;BME280;33066;49.296;14.470;2022-12-10T10:21:35;95801.12;;;9.22;36.18
47082;BME280;33066;49.296;14.470;2022-12-10T10:23:55;95801.91;;;9.43;36.12
47082;BME280;33066;49.296;14.470;2022-12-10T10:26:19;95802.92;;;8.94;36.27
47082;BME280;33066;49.296;14.470;2022-12-10T10:28:45;95807.33;;;9.13;36.27
47082;BME280;33066;49.296;14.470;2022-12-10T10:31:20;95806.66;;;8.74;36.48
47082;BME280;33066;49.296;14.470;2022-12-10T10:36:01;95806.41;;;8.95;36.70
47082;BME280;33066;49.296;14.470;2022-12-10T10:38:28;95806.05;;;9.15;36.72
47082;BME280;33066;49.296;14.470;2022-12-10T10:40:54;95807.62;;;8.91;36.60
47082;BME280;33066;49.296;14.470;2022-12-10T10:43:21;95809.78;;;8.78;36.88
47082;BME280;33066;49.296;14.470;2022-12-10T10:45:49;95806.93;;;8.68;37.06
47082;BME280;33066;49.296;14.470;2022-12-10T10:48:12;95811.03;;;8.58;37.21
47082;BME280;33066;49.296;14.470;2022-12-10T10:50:39;95820.07;;;8.46;37.29
47082;BME280;33066;49.296;14.470;2022-12-10T10:52:59;95824.52;;;8.50;37.28
47082;BME280;33066;49.296;14.470;2022-12-10T10:55:31;95826.40;;;8.49;37.26
47082;BME280;33066;49.296;14.470;2022-12-10T10:57:51;95826.14;;;8.40;37.45
47082;BME280;33066;49.296;14.470;2022-12-10T11:00:19;95824.69;;;8.45;37.45
47082;BME280;33066;49.296;14.470;2022-12-10T11:02:41;95823.66;;;8.93;37.46
47082;BME280;33066;49.296;14.470;2022-12-10T11:05:08;95815.80;;;8.43;37.43
47082;BME280;33066;49.296;14.470;2022-12-10T11:07:34;95814.46;;;8.42;37.37
47082;BME280;33066;49.296;14.470;2022-12-10T11:09:58;95813.69;;;8.37;37.45
47082;BME280;33066;49.296;14.470;2022-12-10T11:12:32;95816.64;;;8.39;37.45
47082;BME280;33066;49.296;14.470;2022-12-10T11:14:48;95819.33;;;8.47;37.41
47082;BME280;33066;49.296;14.470;2022-12-10T11:17:20;95816.61;;;8.39;37.50
47082;BME280;33066;49.296;14.470;2022-12-10T11:19:44;95807.08;;;8.54;37.52
47082;BME280;33066;49.296;14.470;2022-12-10T11:24:30;95804.94;;;8.44;37.40
47082;BME280;33066;49.296;14.470;2022-12-10T11:27:02;95806.51;;;8.76;37.21
47082;BME280;33066;49.296;14.470;2022-12-10T11:32:00;95808.85;;;8.87;37.21
47082;BME280;33066;49.296;14.470;2022-12-10T11:34:19;95804.20;;;8.93;37.04
47082;BME280;33066;49.296;14.470;2022-12-10T11:36:44;95796.32;;;8.91;37.09
47082;BME280;33066;49.296;14.470;2022-12-10T11:39:13;95795.89;;;8.64;37.14
47082;BME280;33066;49.296;14.470;2022-12-10T11:41:34;95795.21;;;8.79;37.16
47082;BME280;33066;49.296;14.470;2022-12-10T11:46:33;95791.24;;;9.00;37.44
47082;BME280;33066;49.296;14.470;2022-12-10T11:48:57;95786.03;;;8.46;37.66
47082;BME280;33066;49.296;14.470;2022-12-10T11:51:17;95787.05;;;8.36;37.84
47082;BME280;33066;49.296;14.470;2022-12-10T11:53:50;95783.57;;;8.41;37.88
47082;BME280;33066;49.296;14.470;2022-12-10T11:56:10;95776.31;;;8.51;37.82
47082;BME280;33066;49.296;14.470;2022-12-10T11:58:43;95764.77;;;8.68;37.81
47082;BME280;33066;49.296;14.470;2022-12-10T12:00:59;95759.99;;;8.84;38.14
47082;BME280;33066;49.296;14.470;2022-12-10T12:05:55;95752.48;;;8.99;39.74
47082;BME280;33066;49.296;14.470;2022-12-10T12:08:13;95749.43;;;9.01;39.88
47082;BME280;33066;49.296;14.470;2022-12-10T12:13:04;95745.27;;;9.08;39.54
47082;BME280;33066;49.296;14.470;2022-12-10T12:15:31;95745.00;;;9.15;39.65
47082;BME280;33066;49.296;14.470;2022-12-10T12:17:56;95748.42;;;9.30;39.65
47082;BME280;33066;49.296;14.470;2022-12-10T12:20:22;95751.72;;;9.50;38.53
47082;BME280;33066;49.296;14.470;2022-12-10T12:22:48;95755.41;;;9.32;38.48
47082;BME280;33066;49.296;14.470;2022-12-10T12:25:16;95760.38;;;9.15;38.45
47082;BME280;33066;49.296;14.470;2022-12-10T12:27:35;95768.04;;;8.96;38.63
47082;BME280;33066;49.296;14.470;2022-12-10T12:30:05;95773.74;;;8.60;38.71
47082;BME280;33066;49.296;14.470;2022-12-10T12:32:32;95780.12;;;8.78;38.85
47082;BME280;33066;49.296;14.470;2022-12-10T12:34:52;95787.39;;;8.81;38.63
47082;BME280;33066;49.296;14.470;2022-12-10T12:37:20;95785.58;;;8.60;38.24
47082;BME280;33066;49.296;14.470;2022-12-10T12:39:47;95781.28;;;8.68;38.82
47082;BME280;33066;49.296;14.470;2022-12-10T12:42:14;95782.52;;;8.45;39.11
47082;BME280;33066;49.296;14.470;2022-12-10T12:44:40;95785.42;;;8.73;39.22
47082;BME280;33066;49.296;14.470;2022-12-10T12:47:02;95784.91;;;8.68;38.85
47082;BME280;33066;49.296;14.470;2022-12-10T12:49:25;95784.98;;;8.73;38.96
47082;BME280;33066;49.296;14.470;2022-12-10T12:51:54;95783.91;;;8.35;38.50
47082;BME280;33066;49.296;14.470;2022-12-10T12:54:15;95780.11;;;8.56;38.25
47082;BME280;33066;49.296;14.470;2022-12-10T12:56:53;95783.95;;;8.80;39.24
47082;BME280;33066;49.296;14.470;2022-12-10T12:59:11;95780.75;;;8.26;39.12
47082;BME280;33066;49.296;14.470;2022-12-10T13:01:35;95778.85;;;8.15;38.35
47082;BME280;33066;49.296;14.470;2022-12-10T13:03:57;95776.24;;;8.24;38.16
47082;BME280;33066;49.296;14.470;2022-12-10T13:06:23;95777.57;;;8.49;37.86
47082;BME280;33066;49.296;14.470;2022-12-10T13:08:48;95783.28;;;8.46;37.80